ULLI/LED METAR and TAF weather

Enter ICAO airport designator
Station Type Date Time Source
ULLI METAR 2021/07/28 20:30 UTC NOAA

ULLI 282030Z 17002MPS 110V260 9000 SCT026CB BKN046 19/17 Q1006 R28L/290050 NOSIG


Station Type Date Time Source
ULLI Decoded METAR 2021/07/28 20:30 UTC NOAA

St. Peterburg, Russia (ULLI) 59-58N 030-18E 6M
Jul 28, 2021 - 04:30 PM EDT / 2021.07.28 2030 UTC
Wind: from the S (170 degrees) at 4 MPH (4 KT) (direction variable):0
Visibility: 5 mile(s):0
Sky conditions: mostly cloudy
Weather: Cumulonimbus clouds observed
Temperature: 66 F (19 C)
Dew Point: 62 F (17 C)
Relative Humidity: 88%
Pressure (altimeter): 29.71 in. Hg (1006 hPa)
ob: ULLI 282030Z 17002MPS 110V260 9000 SCT026CB BKN046 19/17 Q1006 R28L/290050 NOSIG
cycle: 20

Station Type Date Time Source
ULLI TAF 2021/07/28 21:21 UTC NOAA

TAF TAF
AMD ULLI 282013Z 2821/2921 12003MPS 3000 BR BKN040
TEMPO 2821/2824 1000 TSRA BR BKN016CB
TEMPO 2900/2904 0700 FG BKN012
FM290600 24003G10MPS 9999 -SHRA BKN017CB
TEMPO 2912/2915 -TSRA BKN015CB

Example: see airport list